createdAt,value
2023-03-20T00:02:18.938Z,11.48
2023-03-20T00:07:20.617Z,13.27
2023-03-20T00:12:25.428Z,13.38
2023-03-20T00:17:26.985Z,12.73
2023-03-20T00:22:29.430Z,12.55
2023-03-20T00:27:31.004Z,12.55
2023-03-20T00:32:32.734Z,12.57
2023-03-20T00:37:34.343Z,11.35
2023-03-20T00:42:36.580Z,10.60
2023-03-20T00:47:40.908Z,10.15
2023-03-20T00:52:42.572Z,10.63
2023-03-20T00:57:50.311Z,10.50
2023-03-20T01:02:54.738Z,10.82
2023-03-20T01:07:59.382Z,10.73
2023-03-20T01:13:01.762Z,10.00
2023-03-20T01:18:03.497Z,11.40
2023-03-20T01:23:05.817Z,9.20
2023-03-20T01:28:22.719Z,11.38
2023-03-20T01:33:26.522Z,9.77
2023-03-20T01:38:30.352Z,12.88
2023-03-20T01:43:35.874Z,12.45
2023-03-20T01:48:52.623Z,11.43
2023-03-20T01:54:08.333Z,11.95
2023-03-20T01:59:17.626Z,10.68
2023-03-20T02:04:23.927Z,12.90
2023-03-20T02:09:30.256Z,14.68
2023-03-20T02:14:33.606Z,13.88
2023-03-20T02:20:02.899Z,12.82
2023-03-20T02:25:20.647Z,13.80
2023-03-20T02:30:29.196Z,14.80
2023-03-20T02:36:00.886Z,14.98
2023-03-20T02:41:09.176Z,13.07
2023-03-20T02:46:13.597Z,14.40
2023-03-20T02:51:28.305Z,13.38
2023-03-20T02:56:36.241Z,13.93
2023-03-20T03:01:44.116Z,14.13
2023-03-20T03:06:47.539Z,15.75
2023-03-20T03:11:59.008Z,13.60
2023-03-20T03:17:02.476Z,14.20
2023-03-20T03:22:04.616Z,12.80
2023-03-20T03:27:13.714Z,15.35
2023-03-20T03:32:37.080Z,14.00
2023-03-20T03:38:02.521Z,14.85
2023-03-20T03:43:11.593Z,16.27
2023-03-20T03:48:18.924Z,15.38
2023-03-20T03:53:25.346Z,16.83
2023-03-20T03:58:27.417Z,18.15
2023-03-20T04:03:33.074Z,15.27
2023-03-20T04:08:34.746Z,15.95
2023-03-20T04:13:36.374Z,15.85
2023-03-20T04:18:38.095Z,15.15
2023-03-20T04:23:39.729Z,16.85
2023-03-20T04:28:41.380Z,14.25
2023-03-20T04:33:55.470Z,15.95
2023-03-20T04:39:07.757Z,16.52
2023-03-20T04:44:09.446Z,13.40
2023-03-20T04:49:11.283Z,13.60
2023-03-20T04:54:13.125Z,12.35
2023-03-20T04:59:15.199Z,11.98
2023-03-20T05:04:17.113Z,10.85
2023-03-20T05:09:19.073Z,10.98
2023-03-20T05:14:22.473Z,10.30
2023-03-20T05:19:44.534Z,11.35
2023-03-20T05:24:52.451Z,10.45
2023-03-20T05:30:14.176Z,10.82
2023-03-20T05:35:19.186Z,9.60
2023-03-20T05:40:32.678Z,9.20
2023-03-20T05:46:06.997Z,10.10
2023-03-20T05:51:28.857Z,7.75
2023-03-20T05:56:37.995Z,7.53
2023-03-20T06:01:56.520Z,6.50
2023-03-20T06:07:06.262Z,6.00
2023-03-20T06:12:08.285Z,6.03
2023-03-20T06:17:10.291Z,5.10
2023-03-20T06:22:12.152Z,4.00
2023-03-20T06:27:13.779Z,3.47
2023-03-20T06:32:17.288Z,5.05
2023-03-20T06:37:21.959Z,4.40
2023-03-20T06:42:24.030Z,4.47
2023-03-20T06:47:26.153Z,2.97
2023-03-20T06:52:27.807Z,2.95
2023-03-20T06:57:52.230Z,3.10
2023-03-20T07:02:54.472Z,3.88
2023-03-20T07:07:56.801Z,3.05
2023-03-20T07:12:58.424Z,5.43
2023-03-20T07:18:00.233Z,4.43
2023-03-20T07:23:02.857Z,4.63
2023-03-20T07:28:07.624Z,3.35
2023-03-20T07:33:11.297Z,3.75
2023-03-20T07:38:14.013Z,4.47
2023-03-20T07:43:29.455Z,3.33
2023-03-20T07:49:07.950Z,3.95
2023-03-20T07:54:09.599Z,4.05
2023-03-20T07:59:13.070Z,4.28
2023-03-20T08:04:14.805Z,4.63
2023-03-20T08:09:17.011Z,5.18
2023-03-20T08:14:18.650Z,4.22
2023-03-20T08:19:20.248Z,4.50
2023-03-20T08:24:22.503Z,5.75
2023-03-20T08:29:24.098Z,5.32
2023-03-20T08:34:26.379Z,4.32
2023-03-20T08:39:27.974Z,5.70
2023-03-20T08:44:29.555Z,5.20
2023-03-20T08:49:31.738Z,5.22
2023-03-20T08:54:34.254Z,5.72
2023-03-20T08:59:36.063Z,6.03
2023-03-20T09:04:37.877Z,8.65
2023-03-20T09:09:39.467Z,9.10
2023-03-20T09:14:41.803Z,10.13
2023-03-20T09:19:44.748Z,9.27
2023-03-20T09:24:46.571Z,9.23
2023-03-20T09:29:48.178Z,11.07
2023-03-20T09:34:49.765Z,14.68
2023-03-20T09:39:51.307Z,14.50
2023-03-20T09:45:12.220Z,13.40
2023-03-20T09:50:25.964Z,15.57
2023-03-20T09:55:33.567Z,15.80
2023-03-20T10:00:36.712Z,13.77
2023-03-20T10:06:20.212Z,15.50
2023-03-20T10:11:39.843Z,16.70
2023-03-20T10:17:05.157Z,19.17
2023-03-20T10:22:15.463Z,17.73
2023-03-20T10:27:28.230Z,17.45
2023-03-20T10:32:36.498Z,20.02
2023-03-20T10:37:55.865Z,17.05
2023-03-20T10:43:03.678Z,16.73
2023-03-20T10:48:12.848Z,17.98
2023-03-20T10:53:22.915Z,16.17
2023-03-20T10:58:27.009Z,18.15
2023-03-20T11:03:30.718Z,17.65
2023-03-20T11:08:41.375Z,17.20
2023-03-20T11:13:43.507Z,14.43
2023-03-20T11:18:46.491Z,14.82
2023-03-20T11:23:48.516Z,14.02
2023-03-20T11:29:00.180Z,14.48
2023-03-20T11:34:04.417Z,14.88
2023-03-20T11:39:22.352Z,13.80
2023-03-20T11:44:28.312Z,15.88
2023-03-20T11:49:31.332Z,13.68
2023-03-20T11:54:32.968Z,15.82
2023-03-20T11:59:36.272Z,13.90
2023-03-20T12:04:41.959Z,14.13
2023-03-20T12:09:53.181Z,14.77
2023-03-20T12:15:28.967Z,15.63
2023-03-20T12:20:41.760Z,14.38
2023-03-20T12:25:54.877Z,16.40
2023-03-20T12:31:05.627Z,16.50
2023-03-20T12:36:14.128Z,17.42
2023-03-20T12:41:25.261Z,16.70
2023-03-20T12:46:44.800Z,17.48
2023-03-20T12:52:10.369Z,19.88
2023-03-20T12:57:24.019Z,17.65
2023-03-20T13:02:40.674Z,17.98
2023-03-20T13:08:04.093Z,19.67
2023-03-20T13:13:18.440Z,19.15
2023-03-20T13:18:38.468Z,19.90
2023-03-20T13:24:11.630Z,20.80
2023-03-20T13:29:14.357Z,21.23
2023-03-20T13:34:31.987Z,22.55
2023-03-20T13:40:03.074Z,17.92
2023-03-20T13:45:22.079Z,25.35
2023-03-20T13:50:43.415Z,21.00
2023-03-20T13:55:49.652Z,19.58
2023-03-20T14:01:05.597Z,20.88
2023-03-20T14:06:37.477Z,18.63
2023-03-20T14:11:39.065Z,20.23
2023-03-20T14:16:41.355Z,22.08
2023-03-20T14:21:47.717Z,19.67
2023-03-20T14:26:51.187Z,20.60
2023-03-20T14:31:52.798Z,25.95
2023-03-20T14:37:05.454Z,21.40
2023-03-20T14:42:16.281Z,22.08
2023-03-20T14:47:31.641Z,22.33
2023-03-20T14:53:06.406Z,24.08
2023-03-20T14:58:33.508Z,25.10
2023-03-20T15:03:36.409Z,24.77
2023-03-20T15:08:44.382Z,22.83
2023-03-20T15:13:47.358Z,24.45
2023-03-20T15:18:52.592Z,23.80
2023-03-20T15:23:54.166Z,24.77
2023-03-20T15:29:01.546Z,26.00
2023-03-20T15:34:07.062Z,25.60
2023-03-20T15:39:15.378Z,27.80
2023-03-20T15:44:20.305Z,27.60
2023-03-20T15:49:22.404Z,29.58
2023-03-20T15:54:24.324Z,27.35
2023-03-20T15:59:28.103Z,27.80
2023-03-20T16:04:29.798Z,26.35
2023-03-20T16:09:31.647Z,25.67
2023-03-20T16:14:33.737Z,26.83
2023-03-20T16:19:35.350Z,29.13
2023-03-20T16:24:38.758Z,26.92
2023-03-20T16:29:43.328Z,22.20
2023-03-20T16:34:49.627Z,25.10
2023-03-20T16:40:11.762Z,23.90
2023-03-20T16:45:31.476Z,24.42
2023-03-20T16:50:40.447Z,22.90
2023-03-20T16:55:44.458Z,25.67
2023-03-20T17:01:01.880Z,22.27
2023-03-20T17:06:29.335Z,21.42
2023-03-20T17:11:36.026Z,22.08
2023-03-20T17:16:40.143Z,21.13
2023-03-20T17:21:42.135Z,21.63
2023-03-20T17:26:49.009Z,20.35
2023-03-20T17:31:50.762Z,21.60
2023-03-20T17:36:52.531Z,18.92
2023-03-20T17:41:54.171Z,21.50
2023-03-20T17:46:58.791Z,23.85
2023-03-20T17:52:00.987Z,20.90
2023-03-20T17:57:02.635Z,20.02
2023-03-20T18:02:04.333Z,12.93
2023-03-20T18:07:07.036Z,12.82
2023-03-20T18:12:15.595Z,11.85
2023-03-20T18:17:17.517Z,11.10
2023-03-20T18:22:19.129Z,10.68
2023-03-20T18:27:20.739Z,10.88
2023-03-20T18:32:22.532Z,10.23
2023-03-20T18:37:24.137Z,8.55
2023-03-20T18:42:25.732Z,7.78
2023-03-20T18:47:27.296Z,7.15
2023-03-20T18:52:28.896Z,6.47
2023-03-20T18:57:30.496Z,6.32
2023-03-20T19:02:32.835Z,6.82
2023-03-20T19:07:34.487Z,6.25
2023-03-20T19:12:37.107Z,6.82
2023-03-20T19:17:39.035Z,6.88
2023-03-20T19:22:40.685Z,8.77
2023-03-20T19:27:43.623Z,7.57
2023-03-20T19:32:45.430Z,7.68
2023-03-20T19:37:47.064Z,7.65
2023-03-20T19:43:01.492Z,7.57
2023-03-20T19:48:06.938Z,7.18
2023-03-20T19:53:10.080Z,7.15
2023-03-20T19:58:12.542Z,8.27
2023-03-20T20:03:20.344Z,9.27
2023-03-20T20:08:44.233Z,7.88
2023-03-20T20:14:04.109Z,8.63
2023-03-20T20:19:05.846Z,8.48
2023-03-20T20:24:07.656Z,8.15
2023-03-20T20:29:09.721Z,8.30
2023-03-20T20:39:32.902Z,9.05
2023-03-20T20:44:35.229Z,8.82
2023-03-20T20:49:36.828Z,9.30
2023-03-20T20:54:41.603Z,9.93
2023-03-20T20:59:43.258Z,8.98
2023-03-20T21:04:44.996Z,9.48
2023-03-20T21:09:47.068Z,11.00
2023-03-20T21:14:50.487Z,9.95
2023-03-20T21:19:52.343Z,11.63
2023-03-20T21:25:11.026Z,10.15
2023-03-20T21:30:15.560Z,11.98
2023-03-20T21:35:17.305Z,9.63
2023-03-20T21:40:18.902Z,12.32
2023-03-20T21:51:07.282Z,12.63
2023-03-20T22:07:28.590Z,11.57
2023-03-20T22:12:53.546Z,11.93
2023-03-20T22:18:05.831Z,11.88
2023-03-20T22:44:53.740Z,13.73
2023-03-20T22:49:44.143Z,12.13
2023-03-20T22:54:45.721Z,12.52
2023-03-20T22:59:47.548Z,10.75
2023-03-20T23:04:49.485Z,11.98
2023-03-20T23:09:51.250Z,11.50
2023-03-20T23:14:54.436Z,11.52
2023-03-20T23:20:08.643Z,12.25
2023-03-20T23:25:18.701Z,11.00
2023-03-20T23:30:33.958Z,10.38
2023-03-20T23:35:39.371Z,11.25
2023-03-20T23:40:41.451Z,10.32
2023-03-20T23:45:43.046Z,11.27
2023-03-20T23:50:52.916Z,10.88
2023-03-20T23:55:56.670Z,10.13
